Skyline Princess — WDB7684 — position and weather

sailwx.info

Track history (hours):
 
Tides and Currents Weather Stations Pressure Air Temp Water Temp Dewpoint Dewpoint Depression Visibility Wind Speed Wind Dir Waves Ship Positions

Skyline Princess

Owner: Skyline Cruise Lines Inc, Flushing, NY. More information available from US FCC via Universal Licensing System and Coast Guard Vessel Documentation Center.

Last reported at 2018-Jun-23 01:49 UTC. Time now 2018-Jun-23 15:51 UTC.
Position N 40°45' W 073°57'.

Length 35 m; draft 1.8 m.

Type: Ship. MMSI: 366946170.

Date/timePositionNaut miles runAvg speedWind from/ knotsBaromVisibWave heightAir tempDewpointWater temp
2018-Jun-23 01:49N 40°45' W 073°57'2 5.8
2018-Jun-23 01:31N 40°44' W 073°58'2 4.9
2018-Jun-23 01:00N 40°42' W 074°00'1 1.7
2018-Jun-23 00:30N 40°42' W 074°01'5 9.1
2018-Jun-23 00:00N 40°45' W 073°58'0 0.0
2018-Jun-22 02:33N 40°46' W 073°57'0 6.9
2018-Jun-22 02:30N 40°45' W 073°57'3 5.9
2018-Jun-22 02:00N 40°43' W 073°59'2 4.6
2018-Jun-22 01:30N 40°44' W 074°01'0 0.9
2018-Jun-22 01:00N 40°45' W 074°01'0 0.9
2018-Jun-22 00:30N 40°45' W 074°01'3 6.2
2018-Jun-22 00:00N 40°42' W 074°02'1 2.7
2018-Jun-21 23:30N 40°42' W 074°00'2 4.7
2018-Jun-21 23:00N 40°43' W 073°58'2 4.7
2018-Jun-21 22:30N 40°42' W 074°00'3 5.3
2018-Jun-21 22:00N 40°44' W 074°01'0 0.9
2018-Jun-21 21:30N 40°45' W 074°01'0 0.0
2018-Jun-21 21:00N 40°45' W 074°01'3 5.3
2018-Jun-21 20:30N 40°42' W 074°01'3 5.3
2018-Jun-21 19:59N 40°44' W 073°58'2 0.6
2018-Jun-21 16:57N 40°46' W 073°57'3 6.9
2018-Jun-21 16:30N 40°43' W 073°58'4 7.2
2018-Jun-21 16:00N 40°41' W 074°03'2 4.3
2018-Jun-21 15:30N 40°42' W 074°00'4 0.3
2018-Jun-21 01:52N 40°46' W 073°57'2 6.8
2018-Jun-21 01:30N 40°43' W 073°58'3 5.6
2018-Jun-21 01:00N 40°42' W 074°01'2 3.3
2018-Jun-21 00:30N 40°42' W 073°59'4 0.5
2018-Jun-20 16:42N 40°46' W 073°57'2 9.9
2018-Jun-20 16:30N 40°44' W 073°58'4 8.0
2018-Jun-20 16:00N 40°41' W 074°02'2 4.6
2018-Jun-20 15:30N 40°42' W 073°60'3 6.5
2018-Jun-20 14:59N 40°45' W 073°57'0 0.0
2018-Jun-19 20:56N 40°46' W 073°57'3 6.2
2018-Jun-19 20:30N 40°43' W 073°58'3 6.6
2018-Jun-19 20:00N 40°41' W 074°02'3 5.2
2018-Jun-19 19:30N 40°43' W 073°59'3 1.1
2018-Jun-19 16:31N 40°46' W 073°57'010.3
2018-Jun-19 16:30N 40°45' W 073°58'4 8.3
2018-Jun-19 16:00N 40°42' W 074°00'1 2.9
2018-Jun-19 15:30N 40°43' W 073°59'3 0.2
2018-Jun-19 02:06N 40°46' W 073°57'1 9.2
2018-Jun-19 02:01N 40°45' W 073°58'4 8.1
2018-Jun-19 01:30N 40°42' W 074°01'1 2.2
2018-Jun-19 01:01N 40°43' W 074°02'2 4.9
2018-Jun-19 00:30N 40°43' W 073°59'3 0.4
2018-Jun-18 17:04N 40°46' W 073°57'111.1
2018-Jun-18 17:00N 40°45' W 073°58'4 8.9
2018-Jun-18 16:31N 40°42' W 074°01'1 1.5
2018-Jun-18 16:00N 40°42' W 074°00'2 5.0
2018-Jun-18 15:30N 40°44' W 073°58'1 0.1
2018-Jun-17 18:19N 40°45' W 073°58'2 7.1
2018-Jun-17 17:59N 40°43' W 073°58'4 7.3
2018-Jun-17 17:30N 40°41' W 074°03'3 5.1
2018-Jun-17 17:00N 40°42' W 073°60'4 0.3
2018-Jun-17 02:18N 40°46' W 073°57'310.9
2018-Jun-17 02:00N 40°43' W 073°58'3 6.5
2018-Jun-17 01:30N 40°41' W 074°02'3 5.8
2018-Jun-17 01:00N 40°43' W 073°59'3 5.9
2018-Jun-17 00:30N 40°45' W 073°58'0 0.1
2018-Jun-16 19:28N 40°46' W 073°57'3 5.4
2018-Jun-16 19:00N 40°43' W 073°58'2 4.7
2018-Jun-16 18:30N 40°42' W 074°01'1 1.2
2018-Jun-16 18:00N 40°42' W 074°00'4 0.7
2018-Jun-16 12:27N 40°45' W 073°57'1 0.8
2018-Jun-16 10:53N 40°44' W 073°57'1 0.1
2018-Jun-15 23:24N 40°46' W 073°57'3 6.7
2018-Jun-15 23:00N 40°43' W 073°58'4 7.1
2018-Jun-15 22:30N 40°41' W 074°02'2 3.5
2018-Jun-15 22:00N 40°42' W 074°00'3 6.7
2018-Jun-15 21:31N 40°45' W 073°58'1 0.2
2018-Jun-15 17:19N 40°46' W 073°57'1 4.0
2018-Jun-15 17:00N 40°45' W 073°58'3 5.2
2018-Jun-15 16:30N 40°42' W 073°59'3 5.9
2018-Jun-15 16:00N 40°45' W 073°58'1 0.0
2018-Jun-14 23:35N 40°46' W 073°57'110.6
2018-Jun-14 23:31N 40°45' W 073°58'4 8.5
2018-Jun-14 23:01N 40°42' W 074°01'0 0.9
2018-Jun-14 22:31N 40°42' W 074°01'3 5.7
2018-Jun-14 22:01N 40°44' W 073°58'2 0.3
2018-Jun-14 16:02N 40°46' W 073°57'0 6.2
2018-Jun-14 16:00N 40°45' W 073°57'1 1.2
2018-Jun-14 15:30N 40°45' W 073°58'1 0.1
2018-Jun-14 02:25N 40°45' W 073°57'3 8.3
2018-Jun-14 02:00N 40°42' W 073°59'2 4.9
2018-Jun-14 01:30N 40°42' W 074°02'3 6.2
2018-Jun-14 01:00N 40°43' W 073°58'3 0.4
2018-Jun-13 18:03N 40°46' W 073°57'0 6.3
2018-Jun-13 18:00N 40°45' W 073°58'3 5.5
2018-Jun-13 17:30N 40°43' W 073°59'3 5.3
2018-Jun-13 17:00N 40°41' W 074°02'3 5.0
2018-Jun-13 16:30N 40°43' W 073°59'  
Track history (hours):
 
Tides and Currents Weather Stations Pressure Air Temp Water Temp Dewpoint Dewpoint Depression Visibility Wind Speed Wind Dir Waves Ship Positions

Skyline Princess

Owner: Skyline Cruise Lines Inc, Flushing, NY. More information available from US FCC via Universal Licensing System and Coast Guard Vessel Documentation Center.

Last reported at 2018-Jun-23 01:49 UTC. Time now 2018-Jun-23 15:51 UTC.
Position N 40°45' W 073°57'.

Length 35 m; draft 1.8 m.

Type: Ship. MMSI: 366946170.

Date/timePositionNaut miles runAvg speedWind from/ knotsBaromVisibWave heightAir tempDewpointWater temp
2018-Jun-23 01:49N 40°45' W 073°57'2 5.8
2018-Jun-23 01:31N 40°44' W 073°58'2 4.9
2018-Jun-23 01:00N 40°42' W 074°00'1 1.7
2018-Jun-23 00:30N 40°42' W 074°01'5 9.1
2018-Jun-23 00:00N 40°45' W 073°58'0 0.0
2018-Jun-22 02:33N 40°46' W 073°57'0 6.9
2018-Jun-22 02:30N 40°45' W 073°57'3 5.9
2018-Jun-22 02:00N 40°43' W 073°59'2 4.6
2018-Jun-22 01:30N 40°44' W 074°01'0 0.9
2018-Jun-22 01:00N 40°45' W 074°01'0 0.9
2018-Jun-22 00:30N 40°45' W 074°01'3 6.2
2018-Jun-22 00:00N 40°42' W 074°02'1 2.7
2018-Jun-21 23:30N 40°42' W 074°00'2 4.7
2018-Jun-21 23:00N 40°43' W 073°58'2 4.7
2018-Jun-21 22:30N 40°42' W 074°00'3 5.3
2018-Jun-21 22:00N 40°44' W 074°01'0 0.9
2018-Jun-21 21:30N 40°45' W 074°01'0 0.0
2018-Jun-21 21:00N 40°45' W 074°01'3 5.3
2018-Jun-21 20:30N 40°42' W 074°01'3 5.3
2018-Jun-21 19:59N 40°44' W 073°58'2 0.6
2018-Jun-21 16:57N 40°46' W 073°57'3 6.9
2018-Jun-21 16:30N 40°43' W 073°58'4 7.2
2018-Jun-21 16:00N 40°41' W 074°03'2 4.3
2018-Jun-21 15:30N 40°42' W 074°00'4 0.3
2018-Jun-21 01:52N 40°46' W 073°57'2 6.8
2018-Jun-21 01:30N 40°43' W 073°58'3 5.6
2018-Jun-21 01:00N 40°42' W 074°01'2 3.3
2018-Jun-21 00:30N 40°42' W 073°59'4 0.5
2018-Jun-20 16:42N 40°46' W 073°57'2 9.9
2018-Jun-20 16:30N 40°44' W 073°58'4 8.0
2018-Jun-20 16:00N 40°41' W 074°02'2 4.6
2018-Jun-20 15:30N 40°42' W 073°60'3 6.5
2018-Jun-20 14:59N 40°45' W 073°57'0 0.0
2018-Jun-19 20:56N 40°46' W 073°57'3 6.2
2018-Jun-19 20:30N 40°43' W 073°58'3 6.6
2018-Jun-19 20:00N 40°41' W 074°02'3 5.2
2018-Jun-19 19:30N 40°43' W 073°59'3 1.1
2018-Jun-19 16:31N 40°46' W 073°57'010.3
2018-Jun-19 16:30N 40°45' W 073°58'4 8.3
2018-Jun-19 16:00N 40°42' W 074°00'1 2.9
2018-Jun-19 15:30N 40°43' W 073°59'3 0.2
2018-Jun-19 02:06N 40°46' W 073°57'1 9.2
2018-Jun-19 02:01N 40°45' W 073°58'4 8.1
2018-Jun-19 01:30N 40°42' W 074°01'1 2.2
2018-Jun-19 01:01N 40°43' W 074°02'2 4.9
2018-Jun-19 00:30N 40°43' W 073°59'3 0.4
2018-Jun-18 17:04N 40°46' W 073°57'111.1
2018-Jun-18 17:00N 40°45' W 073°58'4 8.9
2018-Jun-18 16:31N 40°42' W 074°01'1 1.5
2018-Jun-18 16:00N 40°42' W 074°00'2 5.0
2018-Jun-18 15:30N 40°44' W 073°58'1 0.1
2018-Jun-17 18:19N 40°45' W 073°58'2 7.1
2018-Jun-17 17:59N 40°43' W 073°58'4 7.3
2018-Jun-17 17:30N 40°41' W 074°03'3 5.1
2018-Jun-17 17:00N 40°42' W 073°60'4 0.3
2018-Jun-17 02:18N 40°46' W 073°57'310.9
2018-Jun-17 02:00N 40°43' W 073°58'3 6.5
2018-Jun-17 01:30N 40°41' W 074°02'3 5.8
2018-Jun-17 01:00N 40°43' W 073°59'3 5.9
2018-Jun-17 00:30N 40°45' W 073°58'0 0.1
2018-Jun-16 19:28N 40°46' W 073°57'3 5.4
2018-Jun-16 19:00N 40°43' W 073°58'2 4.7
2018-Jun-16 18:30N 40°42' W 074°01'1 1.2
2018-Jun-16 18:00N 40°42' W 074°00'4 0.7
2018-Jun-16 12:27N 40°45' W 073°57'1 0.8
2018-Jun-16 10:53N 40°44' W 073°57'1 0.1
2018-Jun-15 23:24N 40°46' W 073°57'3 6.7
2018-Jun-15 23:00N 40°43' W 073°58'4 7.1
2018-Jun-15 22:30N 40°41' W 074°02'2 3.5
2018-Jun-15 22:00N 40°42' W 074°00'3 6.7
2018-Jun-15 21:31N 40°45' W 073°58'1 0.2
2018-Jun-15 17:19N 40°46' W 073°57'1 4.0
2018-Jun-15 17:00N 40°45' W 073°58'3 5.2
2018-Jun-15 16:30N 40°42' W 073°59'3 5.9
2018-Jun-15 16:00N 40°45' W 073°58'1 0.0
2018-Jun-14 23:35N 40°46' W 073°57'110.6
2018-Jun-14 23:31N 40°45' W 073°58'4 8.5
2018-Jun-14 23:01N 40°42' W 074°01'0 0.9
2018-Jun-14 22:31N 40°42' W 074°01'3 5.7
2018-Jun-14 22:01N 40°44' W 073°58'2 0.3
2018-Jun-14 16:02N 40°46' W 073°57'0 6.2
2018-Jun-14 16:00N 40°45' W 073°57'1 1.2
2018-Jun-14 15:30N 40°45' W 073°58'1 0.1
2018-Jun-14 02:25N 40°45' W 073°57'3 8.3
2018-Jun-14 02:00N 40°42' W 073°59'2 4.9
2018-Jun-14 01:30N 40°42' W 074°02'3 6.2
2018-Jun-14 01:00N 40°43' W 073°58'3 0.4
2018-Jun-13 18:03N 40°46' W 073°57'0 6.3
2018-Jun-13 18:00N 40°45' W 073°58'3 5.5
2018-Jun-13 17:30N 40°43' W 073°59'3 5.3
2018-Jun-13 17:00N 40°41' W 074°02'3 5.0
2018-Jun-13 16:30N 40°43' W 073°59'  

Dump ship's entire track history